createdAt,value
2016-08-26T00:00:09.402Z,37.53
2016-08-26T00:01:09.386Z,37.23
2016-08-26T00:02:09.370Z,37.51
2016-08-26T00:03:09.356Z,37.23
2016-08-26T00:04:09.340Z,37.34
2016-08-26T00:05:09.324Z,37.32
2016-08-26T00:06:09.325Z,37.32
2016-08-26T00:07:09.296Z,37.32
2016-08-26T00:08:09.281Z,37.61
2016-08-26T00:09:09.267Z,37.73
2016-08-26T00:10:09.266Z,37.61
2016-08-26T00:11:09.236Z,37.71
2016-08-26T00:12:09.219Z,37.71
2016-08-26T00:13:09.205Z,37.81
2016-08-26T00:14:09.191Z,37.81
2016-08-26T00:15:09.174Z,37.81
2016-08-26T00:16:09.161Z,37.71
2016-08-26T00:17:09.144Z,37.81
2016-08-26T00:18:09.130Z,37.9
2016-08-26T00:19:09.115Z,37.9
2016-08-26T00:20:09.100Z,37.81
2016-08-26T00:21:09.087Z,37.61
2016-08-26T00:22:09.070Z,37.71
2016-08-26T00:23:09.057Z,37.61
2016-08-26T00:24:09.042Z,37.81
2016-08-26T00:25:09.024Z,37.71
2016-08-26T00:26:09.013Z,37.81
2016-08-26T00:27:08.994Z,37.71
2016-08-26T00:28:08.984Z,37.81
2016-08-26T00:29:08.967Z,38.09
2016-08-26T00:30:08.951Z,38.19
2016-08-26T00:31:08.937Z,38.19
2016-08-26T00:32:08.920Z,38.19
2016-08-26T00:33:08.907Z,38.29
2016-08-26T00:34:08.890Z,38.39
2016-08-26T00:35:08.875Z,38.29
2016-08-26T00:36:08.863Z,38.29
2016-08-26T00:37:08.846Z,38.29
2016-08-26T00:38:08.831Z,38.39
2016-08-26T00:39:08.816Z,38.29
2016-08-26T00:40:08.802Z,38.29
2016-08-26T00:41:08.788Z,38.48
2016-08-26T00:42:08.771Z,38.39
2016-08-26T00:43:08.756Z,38.56
2016-08-26T00:44:08.741Z,38.39
2016-08-26T00:45:08.723Z,38.27
2016-08-26T00:46:08.711Z,38.66
2016-08-26T00:47:08.695Z,38.56
2016-08-26T00:48:08.680Z,38.58
2016-08-26T00:49:08.664Z,38.37
2016-08-26T00:50:08.649Z,38.58
2016-08-26T00:51:08.636Z,38.56
2016-08-26T00:52:08.619Z,38.56
2016-08-26T00:53:08.606Z,38.56
2016-08-26T00:54:08.591Z,38.56
2016-08-26T00:55:08.574Z,38.76
2016-08-26T00:56:08.560Z,38.66
2016-08-26T00:57:08.543Z,38.85
2016-08-26T00:58:08.530Z,38.85
2016-08-26T00:59:08.515Z,38.95
2016-08-26T01:00:08.498Z,38.95
2016-08-26T01:01:08.485Z,38.95
2016-08-26T01:02:08.480Z,39.04
2016-08-26T01:03:08.453Z,39.43
2016-08-26T01:04:08.438Z,39.24
2016-08-26T01:05:08.421Z,39.04
2016-08-26T01:06:08.408Z,39.04
2016-08-26T01:07:08.391Z,39.14
2016-08-26T01:08:08.377Z,39.04
2016-08-26T01:09:08.362Z,39.24
2016-08-26T01:10:08.347Z,39.24
2016-08-26T01:11:08.334Z,39.53
2016-08-26T01:12:08.318Z,39.62
2016-08-26T01:13:08.301Z,39.72
2016-08-26T01:14:08.285Z,40.01
2016-08-26T01:15:08.270Z,39.82
2016-08-26T01:16:08.259Z,39.9
2016-08-26T01:17:08.251Z,39.8
2016-08-26T01:18:08.929Z,39.72
2016-08-26T01:19:08.210Z,39.72
2016-08-26T01:20:08.205Z,39.53
2016-08-26T01:21:08.186Z,39.7
2016-08-26T01:22:08.165Z,39.8
2016-08-26T01:23:08.149Z,40
2016-08-26T01:24:08.135Z,40.19
2016-08-26T01:25:08.117Z,39.9
2016-08-26T01:26:08.103Z,40.09
2016-08-26T01:27:08.087Z,40.38
2016-08-26T01:28:08.072Z,40.48
2016-08-26T01:29:08.063Z,40.86
2016-08-26T01:30:08.040Z,40.86
2016-08-26T01:31:08.032Z,40.58
2016-08-26T01:32:08.009Z,40.58
2016-08-26T01:33:07.994Z,41.06
2016-08-26T01:34:07.979Z,41.06
2016-08-26T01:35:07.963Z,40.86
2016-08-26T01:36:07.961Z,40.96
2016-08-26T01:37:07.933Z,40.58
2016-08-26T01:38:07.917Z,41.25
2016-08-26T01:39:07.902Z,41.25
2016-08-26T01:40:07.885Z,41.04
2016-08-26T01:41:07.870Z,40.96
2016-08-26T01:42:07.864Z,41.33
2016-08-26T01:43:07.841Z,41.14
2016-08-26T01:44:07.824Z,41.35
2016-08-26T01:45:07.809Z,41.42
2016-08-26T01:46:07.792Z,41.52
2016-08-26T01:47:07.776Z,41.33
2016-08-26T01:48:07.763Z,41.42
2016-08-26T01:49:07.747Z,41.62
2016-08-26T01:50:07.731Z,41.91
2016-08-26T01:51:07.720Z,41.91
2016-08-26T01:52:07.706Z,41.62
2016-08-26T01:53:07.685Z,42
2016-08-26T01:54:07.669Z,42.2
2016-08-26T01:55:07.656Z,42.2
2016-08-26T01:56:07.637Z,42.2
2016-08-26T01:57:07.621Z,41.91
2016-08-26T01:58:08.297Z,42
2016-08-26T01:59:07.590Z,42.1
2016-08-26T02:00:07.573Z,42.2
2016-08-26T02:01:07.560Z,42.2
2016-08-26T02:02:07.544Z,42.59
2016-08-26T02:03:07.526Z,42.59
2016-08-26T02:04:07.513Z,42.1
2016-08-26T02:05:07.495Z,42.3
2016-08-26T02:06:07.481Z,42.47
2016-08-26T02:07:07.465Z,42.49
2016-08-26T02:08:07.450Z,42.3
2016-08-26T02:09:07.434Z,42.49
2016-08-26T02:10:07.419Z,42.59
2016-08-26T02:11:07.403Z,42.59
2016-08-26T02:12:07.392Z,42.78
2016-08-26T02:13:07.370Z,42.76
2016-08-26T02:14:07.366Z,42.78
2016-08-26T02:15:07.339Z,42.66
2016-08-26T02:16:07.320Z,42.78
2016-08-26T02:17:07.313Z,42.78
2016-08-26T02:18:07.290Z,42.86
2016-08-26T02:19:07.275Z,43.54
2016-08-26T02:20:07.256Z,43.44
2016-08-26T02:21:07.255Z,43.27
2016-08-26T02:22:07.229Z,42.86
2016-08-26T02:23:07.213Z,42.76
2016-08-26T02:24:07.196Z,42.96
2016-08-26T02:25:07.179Z,42.96
2016-08-26T02:26:07.167Z,43.34
2016-08-26T02:27:07.147Z,43.24
2016-08-26T02:28:07.131Z,43.24
2016-08-26T02:29:07.116Z,43.24
2016-08-26T02:30:07.100Z,43.54
2016-08-26T02:31:07.084Z,43.54
2016-08-26T02:32:07.068Z,43.54
2016-08-26T02:33:07.054Z,43.44
2016-08-26T02:34:07.042Z,43.44
2016-08-26T02:35:07.030Z,43.54
2016-08-26T02:36:07.004Z,43.73
2016-08-26T02:37:06.987Z,43.54
2016-08-26T02:38:06.972Z,43.63
2016-08-26T02:39:06.957Z,43.54
2016-08-26T02:40:06.940Z,43.44
2016-08-26T02:41:06.925Z,43.54
2016-08-26T02:42:06.919Z,43.82
2016-08-26T02:43:06.897Z,43.92
2016-08-26T02:44:06.878Z,43.73
2016-08-26T02:45:06.869Z,43.82
2016-08-26T02:46:06.846Z,44.12
2016-08-26T02:47:06.831Z,44.12
2016-08-26T02:48:06.815Z,43.92
2016-08-26T02:49:06.800Z,43.73
2016-08-26T02:50:06.781Z,43.82
2016-08-26T02:51:06.765Z,44.21
2016-08-26T02:52:06.757Z,44.31
2016-08-26T02:53:06.735Z,44.29
2016-08-26T02:54:06.723Z,44.29
2016-08-26T02:55:06.700Z,44.48
2016-08-26T02:56:07.385Z,44.48
2016-08-26T02:57:06.670Z,44.38
2016-08-26T02:58:06.653Z,44.38
2016-08-26T02:59:06.638Z,44.29
2016-08-26T03:00:06.621Z,44.48
2016-08-26T03:01:06.605Z,44.38
2016-08-26T03:02:06.591Z,44.38
2016-08-26T03:03:06.574Z,44.19
2016-08-26T03:04:06.564Z,44.38
2016-08-26T03:05:06.540Z,44.38
2016-08-26T03:06:06.526Z,44.29
2016-08-26T03:07:06.509Z,44.77
2016-08-26T03:08:06.493Z,44.67
2016-08-26T03:09:06.479Z,44.87
2016-08-26T03:10:06.459Z,44.67
2016-08-26T03:11:06.443Z,44.57
2016-08-26T03:12:06.429Z,44.67
2016-08-26T03:13:06.413Z,44.77
2016-08-26T03:14:06.397Z,44.67
2016-08-26T03:15:06.380Z,44.67
2016-08-26T03:16:06.366Z,44.67
2016-08-26T03:17:06.347Z,44.67
2016-08-26T03:18:06.331Z,44.57
2016-08-26T03:19:06.317Z,44.67
2016-08-26T03:20:06.299Z,44.67
2016-08-26T03:21:06.285Z,44.77
2016-08-26T03:22:06.267Z,44.77
2016-08-26T03:23:06.251Z,44.57
2016-08-26T03:24:06.236Z,44.67
2016-08-26T03:25:06.218Z,44.48
2016-08-26T03:26:06.203Z,44.57
2016-08-26T03:27:06.188Z,44.87
2016-08-26T03:28:06.171Z,44.38
2016-08-26T03:29:06.163Z,44.87
2016-08-26T03:30:06.137Z,44.96
2016-08-26T03:31:06.123Z,44.87
2016-08-26T03:32:06.112Z,44.96
2016-08-26T03:33:06.089Z,44.96
2016-08-26T03:34:06.073Z,45.06
2016-08-26T03:35:06.055Z,44.57
2016-08-26T03:36:06.041Z,44.96
2016-08-26T03:37:06.023Z,44.87
2016-08-26T03:38:06.009Z,44.96
2016-08-26T03:39:05.994Z,45.06
2016-08-26T03:40:05.973Z,45.16
2016-08-26T03:41:05.957Z,44.96
2016-08-26T03:42:05.942Z,45.16
2016-08-26T03:43:05.926Z,45.54
2016-08-26T03:44:05.909Z,45.35
2016-08-26T03:45:05.895Z,45.45
2016-08-26T03:46:05.885Z,45.35
2016-08-26T03:47:05.860Z,45.25
2016-08-26T03:48:05.847Z,45.06
2016-08-26T03:49:05.831Z,45.16
2016-08-26T03:50:05.814Z,45.16
2016-08-26T03:51:05.798Z,45.16
2016-08-26T03:52:05.780Z,45.06
2016-08-26T03:53:05.762Z,45.16
2016-08-26T03:54:05.748Z,45.35
2016-08-26T03:55:05.733Z,45.25
2016-08-26T03:56:05.715Z,45.16
2016-08-26T03:57:05.699Z,45.25
2016-08-26T03:58:05.682Z,45.23
2016-08-26T03:59:05.677Z,45.14
2016-08-26T04:00:05.651Z,44.96
2016-08-26T04:01:05.632Z,45.54
2016-08-26T04:02:05.617Z,45.64
2016-08-26T04:03:05.600Z,45.62
2016-08-26T04:04:05.584Z,45.54
2016-08-26T04:05:05.567Z,45.64
2016-08-26T04:06:05.550Z,45.54
2016-08-26T04:07:05.535Z,45.45
2016-08-26T04:08:05.524Z,45.42
2016-08-26T04:09:05.505Z,45.35
2016-08-26T04:10:05.503Z,45.54
2016-08-26T04:11:05.471Z,45.52
2016-08-26T04:12:05.455Z,45.45
2016-08-26T04:13:05.436Z,45.42
2016-08-26T04:14:05.422Z,45.52
2016-08-26T04:15:05.405Z,45.42
2016-08-26T04:16:05.391Z,45.42
2016-08-26T04:17:05.373Z,45.52
2016-08-26T04:18:05.356Z,45.81
2016-08-26T04:19:05.340Z,45.91
2016-08-26T04:20:05.323Z,45.72
2016-08-26T04:21:05.307Z,45.72
2016-08-26T04:22:05.292Z,46
2016-08-26T04:23:05.277Z,45.72
2016-08-26T04:24:05.259Z,45.62
2016-08-26T04:25:05.243Z,45.81
2016-08-26T04:26:05.230Z,45.52
2016-08-26T04:27:05.210Z,45.81
2016-08-26T04:28:05.192Z,45.81
2016-08-26T04:29:05.177Z,45.81
2016-08-26T04:30:05.164Z,45.72
2016-08-26T04:31:05.144Z,45.62
2016-08-26T04:32:05.128Z,45.81
2016-08-26T04:33:05.112Z,46
2016-08-26T04:34:05.094Z,45.91
2016-08-26T04:35:05.078Z,45.91
2016-08-26T04:36:05.067Z,45.91
2016-08-26T04:37:05.053Z,45.91
2016-08-26T04:38:05.031Z,46.3
2016-08-26T04:39:05.013Z,46.3
2016-08-26T04:40:04.996Z,46.2
2016-08-26T04:41:04.981Z,46.39
2016-08-26T04:42:04.964Z,46.58
2016-08-26T04:43:04.948Z,46.39
2016-08-26T04:44:04.932Z,46.68
2016-08-26T04:45:04.917Z,46.3
2016-08-26T04:46:04.900Z,46.49
2016-08-26T04:47:04.880Z,46.49
2016-08-26T04:48:04.869Z,46.39
2016-08-26T04:49:04.861Z,46.39
2016-08-26T04:50:04.832Z,46.39
2016-08-26T04:51:04.820Z,46.3
2016-08-26T04:52:04.805Z,46.39
2016-08-26T04:53:04.785Z,46.2
2016-08-26T04:54:04.768Z,46.2
2016-08-26T04:55:04.752Z,46.39
2016-08-26T04:56:04.737Z,46.2
2016-08-26T04:57:04.717Z,46.3
2016-08-26T04:58:04.703Z,46.39
2016-08-26T04:59:04.687Z,46.39
2016-08-26T05:00:04.672Z,46.39
2016-08-26T05:01:04.654Z,46.39
2016-08-26T05:02:04.635Z,46.49
2016-08-26T05:03:04.622Z,46.39
2016-08-26T05:04:04.604Z,46.49
2016-08-26T05:05:04.589Z,46.49
2016-08-26T05:06:04.574Z,46.3
2016-08-26T05:07:04.556Z,46.39
2016-08-26T05:08:04.536Z,46.3
2016-08-26T05:09:04.523Z,46.68
2016-08-26T05:10:04.509Z,46.49
2016-08-26T05:11:04.490Z,46.51
2016-08-26T05:12:04.474Z,46.22
2016-08-26T05:13:04.462Z,46.1
2016-08-26T05:14:04.442Z,46.03
2016-08-26T05:15:04.439Z,45.93
2016-08-26T05:16:04.416Z,46.03
2016-08-26T05:17:04.392Z,46.03
2016-08-26T05:18:04.379Z,45.93
2016-08-26T05:19:04.363Z,45.83
2016-08-26T05:20:04.347Z,45.74
2016-08-26T05:21:04.343Z,45.74
2016-08-26T05:22:04.315Z,45.93
2016-08-26T05:23:04.294Z,45.83
2016-08-26T05:24:04.291Z,45.74
2016-08-26T05:25:04.265Z,45.74
2016-08-26T05:26:04.249Z,46.03
2016-08-26T05:27:04.245Z,45.74
2016-08-26T05:28:04.219Z,45.93
2016-08-26T05:29:04.204Z,45.45
2016-08-26T05:30:04.187Z,45.45
2016-08-26T05:31:04.168Z,45.45
2016-08-26T05:32:04.155Z,45.54
2016-08-26T05:33:04.138Z,45.47
2016-08-26T05:34:04.120Z,45.57
2016-08-26T05:35:04.107Z,45.74
2016-08-26T05:36:04.088Z,45.66
2016-08-26T05:37:04.073Z,45.28
2016-08-26T05:38:04.058Z,45.28
2016-08-26T05:39:04.039Z,45.18
2016-08-26T05:40:04.029Z,45.08
2016-08-26T05:41:04.008Z,45.18
2016-08-26T05:42:03.994Z,45.37
2016-08-26T05:43:03.978Z,45.28
2016-08-26T05:44:03.962Z,45.37
2016-08-26T05:45:03.948Z,45.08
2016-08-26T05:46:03.932Z,44.98
2016-08-26T05:47:03.920Z,45.08
2016-08-26T05:48:03.899Z,44.81
2016-08-26T05:49:03.889Z,44.62
2016-08-26T05:50:03.882Z,44.72
2016-08-26T05:51:03.854Z,44.72
2016-08-26T05:52:03.838Z,44.53
2016-08-26T05:53:03.820Z,44.33
2016-08-26T05:54:03.807Z,44.53
2016-08-26T05:55:03.792Z,44.33
2016-08-26T05:56:03.777Z,44.04
2016-08-26T05:57:03.762Z,43.75
2016-08-26T05:58:03.748Z,43.85
2016-08-26T05:59:03.732Z,43.95
2016-08-26T06:00:03.718Z,43.95
2016-08-26T06:01:03.701Z,43.75
2016-08-26T06:02:03.687Z,43.96
2016-08-26T06:03:03.672Z,43.68
2016-08-26T06:04:03.655Z,43.68
2016-08-26T06:05:03.663Z,43.58
2016-08-26T06:06:03.623Z,43.77
2016-08-26T06:07:03.610Z,43.58
2016-08-26T06:08:03.594Z,43.77
2016-08-26T06:09:03.579Z,43.58
2016-08-26T06:10:03.564Z,43.29
2016-08-26T06:11:03.548Z,43.38
2016-08-26T06:12:03.531Z,43.38
2016-08-26T06:13:03.519Z,43.29
2016-08-26T06:14:03.502Z,43
2016-08-26T06:15:03.486Z,43.19
2016-08-26T06:16:03.474Z,42.92
2016-08-26T06:17:03.458Z,43.09
2016-08-26T06:18:03.443Z,43.09
2016-08-26T06:19:03.432Z,43.31
2016-08-26T06:20:03.415Z,43.31
2016-08-26T06:21:03.400Z,43.21
2016-08-26T06:22:03.384Z,43.79
2016-08-26T06:23:03.369Z,43.21
2016-08-26T06:24:03.358Z,43.02
2016-08-26T06:25:03.342Z,42.82
2016-08-26T06:26:03.326Z,42.72
2016-08-26T06:27:03.311Z,42.36
2016-08-26T06:28:03.295Z,42.36
2016-08-26T06:29:03.283Z,42.55
2016-08-26T06:30:03.270Z,42.07
2016-08-26T06:31:03.258Z,42.07
2016-08-26T06:32:03.242Z,42.29
2016-08-26T06:33:03.228Z,42.29
2016-08-26T06:34:03.215Z,41.61
2016-08-26T06:35:03.205Z,42.09
2016-08-26T06:36:03.191Z,41.61
2016-08-26T06:37:03.175Z,41.41
2016-08-26T06:38:03.165Z,40.75
2016-08-26T06:39:03.149Z,40.95
2016-08-26T06:40:03.140Z,40.56
2016-08-26T06:41:03.129Z,40.97
2016-08-26T06:42:03.118Z,40.19
2016-08-26T06:43:03.102Z,39.9
2016-08-26T06:44:03.093Z,39.82
2016-08-26T06:45:03.082Z,39.82
2016-08-26T06:46:03.072Z,39.72
2016-08-26T06:47:03.059Z,39.62
2016-08-26T06:48:03.054Z,39.45
2016-08-26T06:49:03.035Z,39.14
2016-08-26T06:50:03.030Z,39.26
2016-08-26T06:51:03.011Z,39.36
2016-08-26T06:52:03.001Z,39.16
2016-08-26T06:53:02.989Z,39.26
2016-08-26T06:54:02.977Z,38.87
2016-08-26T06:55:02.966Z,38.89
2016-08-26T06:56:02.957Z,38.96
2016-08-26T06:57:02.942Z,38.96
2016-08-26T06:58:02.927Z,38.96
2016-08-26T06:59:02.917Z,38.77
2016-08-26T07:00:03.730Z,38.77
2016-08-26T07:01:02.892Z,38.89
2016-08-26T07:02:02.881Z,38.7
2016-08-26T07:03:02.869Z,38.89
2016-08-26T07:04:02.858Z,38.7
2016-08-26T07:05:02.845Z,38.6
2016-08-26T07:06:02.832Z,38.5
2016-08-26T07:07:02.824Z,38.42
2016-08-26T07:08:02.813Z,38.32
2016-08-26T07:09:02.797Z,37.64
2016-08-26T07:10:02.788Z,37.84
2016-08-26T07:11:02.779Z,37.64
2016-08-26T07:12:02.766Z,37.27
2016-08-26T07:13:02.756Z,37.46
2016-08-26T07:14:02.744Z,37.27
2016-08-26T07:15:02.737Z,36.51
2016-08-26T07:16:02.726Z,36.51
2016-08-26T07:17:02.715Z,36.51
2016-08-26T07:18:02.708Z,35.94
2016-08-26T07:19:02.702Z,35.85
2016-08-26T07:20:02.688Z,35.85
2016-08-26T07:21:02.681Z,35.36
2016-08-26T07:22:03.360Z,35.18
2016-08-26T07:23:02.667Z,35.18
2016-08-26T07:24:03.447Z,35.28
2016-08-26T07:25:02.644Z,34.89
2016-08-26T07:26:02.643Z,34.89
2016-08-26T07:27:02.623Z,35.2
2016-08-26T07:28:02.615Z,35.08
2016-08-26T07:29:02.607Z,35
2016-08-26T07:30:02.606Z,34.81
2016-08-26T07:31:02.587Z,34.4
2016-08-26T07:32:02.577Z,34.52
2016-08-26T07:33:02.572Z,34.42
2016-08-26T07:34:02.561Z,34.12
2016-08-26T07:35:02.553Z,34.34
2016-08-26T07:36:02.545Z,34.14
2016-08-26T07:37:02.534Z,34.05
2016-08-26T07:38:02.526Z,33.56
2016-08-26T07:39:02.518Z,33.58
2016-08-26T07:40:02.510Z,33.58
2016-08-26T07:41:02.502Z,33.38
2016-08-26T07:42:02.495Z,33.28
2016-08-26T07:43:02.491Z,32.79
2016-08-26T07:44:02.494Z,32.81
2016-08-26T07:45:02.469Z,32.81
2016-08-26T07:46:02.467Z,32.52
2016-08-26T07:47:02.457Z,32.32
2016-08-26T07:48:02.452Z,32.14
2016-08-26T07:49:02.439Z,31.95
2016-08-26T07:50:02.436Z,31.65
2016-08-26T07:51:02.426Z,31.67
2016-08-26T07:52:02.419Z,31.38
2016-08-26T07:53:02.519Z,31.77
2016-08-26T07:54:02.404Z,31.67
2016-08-26T07:55:02.399Z,31.48
2016-08-26T07:56:02.391Z,31.48
2016-08-26T07:57:02.383Z,31.38
2016-08-26T07:58:02.379Z,31.28
2016-08-26T07:59:02.374Z,31.28
2016-08-26T08:00:02.365Z,31.48
2016-08-26T08:01:02.359Z,31.18
2016-08-26T08:02:02.352Z,31.1
2016-08-26T08:03:02.343Z,31.2
2016-08-26T08:04:03.099Z,31.1
2016-08-26T08:05:02.331Z,31.1
2016-08-26T08:06:02.326Z,31.1
2016-08-26T08:07:02.317Z,31
2016-08-26T08:08:02.309Z,30.9
2016-08-26T08:09:02.302Z,31.1
2016-08-26T08:10:02.297Z,31
2016-08-26T08:11:02.286Z,31
2016-08-26T08:12:02.276Z,31.1
2016-08-26T08:13:02.278Z,31.2
2016-08-26T08:14:02.261Z,31.59
2016-08-26T08:15:02.254Z,31.29
2016-08-26T08:16:02.251Z,31.49
2016-08-26T08:17:02.237Z,31.18
2016-08-26T08:18:02.227Z,31.87
2016-08-26T08:19:02.220Z,31.87
2016-08-26T08:20:02.213Z,32.06
2016-08-26T08:21:02.200Z,32.16
2016-08-26T08:22:02.191Z,32.26
2016-08-26T08:23:02.182Z,32.34
2016-08-26T08:24:02.174Z,32.45
2016-08-26T08:25:02.163Z,32.24
2016-08-26T08:26:02.154Z,32.45
2016-08-26T08:27:02.144Z,32.43
2016-08-26T08:28:02.138Z,32.45
2016-08-26T08:29:02.126Z,32.63
2016-08-26T08:30:02.114Z,32.63
2016-08-26T08:31:02.104Z,32.82
2016-08-26T08:32:02.096Z,32.82
2016-08-26T08:33:02.082Z,32.92
2016-08-26T08:34:02.091Z,33.02
2016-08-26T08:35:02.064Z,33.02
2016-08-26T08:36:02.052Z,33.12
2016-08-26T08:37:02.044Z,33.12
2016-08-26T08:38:02.035Z,33.22
2016-08-26T08:39:02.023Z,33.31
2016-08-26T08:40:02.015Z,33.22
2016-08-26T08:41:02.001Z,33.31
2016-08-26T08:42:01.991Z,33.31
2016-08-26T08:43:01.984Z,33.31
2016-08-26T08:44:01.973Z,33.41
2016-08-26T08:45:01.964Z,33.31
2016-08-26T08:46:01.953Z,33.22
2016-08-26T08:47:01.940Z,33.31
2016-08-26T08:48:01.954Z,33.31
2016-08-26T08:49:01.921Z,33.31
2016-08-26T08:50:01.915Z,33.31
2016-08-26T08:51:01.902Z,33.22
2016-08-26T08:52:01.890Z,33.22
2016-08-26T08:53:01.886Z,33.41
2016-08-26T08:54:01.871Z,33.31
2016-08-26T08:55:01.859Z,33.31
2016-08-26T08:56:01.851Z,33.31
2016-08-26T08:57:01.842Z,33.31
2016-08-26T08:58:01.829Z,33.31
2016-08-26T08:59:01.820Z,33.33
2016-08-26T09:00:01.811Z,33.22
2016-08-26T09:01:01.800Z,33.31
2016-08-26T09:02:01.793Z,33.04
2016-08-26T09:03:01.779Z,32.94
2016-08-26T09:04:01.768Z,33.04
2016-08-26T09:05:01.759Z,32.94
2016-08-26T09:06:01.750Z,33.14
2016-08-26T09:07:01.741Z,33.14
2016-08-26T09:08:01.730Z,32.94
2016-08-26T09:09:01.720Z,33.04
2016-08-26T09:10:01.709Z,32.94
2016-08-26T09:11:01.700Z,33.04
2016-08-26T09:12:01.688Z,33.04
2016-08-26T09:13:01.676Z,33.23
2016-08-26T09:14:01.676Z,33.14
2016-08-26T09:15:01.657Z,33.33
2016-08-26T09:16:01.645Z,33.23
2016-08-26T09:17:01.636Z,33.23
2016-08-26T09:18:01.626Z,33.14
2016-08-26T09:19:01.618Z,33.23
2016-08-26T09:20:01.608Z,33.14
2016-08-26T09:21:01.596Z,33.34
2016-08-26T09:22:01.586Z,33.23
2016-08-26T09:23:01.577Z,33.14
2016-08-26T09:24:01.566Z,33.23
2016-08-26T09:25:01.554Z,33.14
2016-08-26T09:26:01.548Z,33.15
2016-08-26T09:27:01.534Z,33.25
2016-08-26T09:28:01.522Z,33.25
2016-08-26T09:29:01.516Z,33.25
2016-08-26T09:30:01.507Z,33.25
2016-08-26T09:31:01.495Z,33.05
2016-08-26T09:32:01.486Z,33.15
2016-08-26T09:33:01.473Z,32.95
2016-08-26T09:34:01.463Z,32.86
2016-08-26T09:35:01.463Z,32.97
2016-08-26T09:36:01.444Z,32.87
2016-08-26T09:37:01.432Z,32.76
2016-08-26T09:38:01.428Z,32.46
2016-08-26T09:39:01.414Z,32.78
2016-08-26T09:40:01.408Z,32.66
2016-08-26T09:41:01.398Z,32.58
2016-08-26T09:42:01.386Z,32.48
2016-08-26T09:43:01.372Z,32.48
2016-08-26T09:44:01.365Z,32.56
2016-08-26T09:45:01.360Z,32.39
2016-08-26T09:46:01.345Z,32.39
2016-08-26T09:47:01.335Z,32.39
2016-08-26T09:48:01.325Z,32.19
2016-08-26T09:49:01.315Z,32.19
2016-08-26T09:50:01.306Z,32.19
2016-08-26T09:51:01.298Z,32.19
2016-08-26T09:52:01.289Z,32.19
2016-08-26T09:53:01.276Z,32.3
2016-08-26T09:54:01.270Z,32.3
2016-08-26T09:55:01.261Z,32.1
2016-08-26T09:56:01.249Z,32.2
2016-08-26T09:57:01.237Z,32.1
2016-08-26T09:58:01.230Z,32.2
2016-08-26T09:59:01.221Z,32.01
2016-08-26T10:00:01.210Z,32.4
2016-08-26T10:01:01.216Z,32.1
2016-08-26T10:02:01.193Z,32.3
2016-08-26T10:03:01.183Z,32.22
2016-08-26T10:04:01.172Z,32.03
2016-08-26T10:05:01.164Z,32.03
2016-08-26T10:06:01.158Z,31.62
2016-08-26T10:07:01.144Z,31.54
2016-08-26T10:08:01.132Z,31.54
2016-08-26T10:09:01.126Z,31.14
2016-08-26T10:10:01.115Z,31.14
2016-08-26T10:11:01.104Z,31.24
2016-08-26T10:12:01.097Z,31.34
2016-08-26T10:13:01.087Z,31.34
2016-08-26T10:14:01.076Z,31.45
2016-08-26T10:15:01.069Z,31.26
2016-08-26T10:16:01.059Z,31.16
2016-08-26T10:17:01.049Z,31.06
2016-08-26T10:18:01.041Z,31.16
2016-08-26T10:19:01.032Z,31.06
2016-08-26T10:20:01.021Z,31.35
2016-08-26T10:21:01.015Z,30.87
2016-08-26T10:22:01.005Z,31.16
2016-08-26T10:23:00.994Z,31.16
2016-08-26T10:24:00.987Z,30.57
2016-08-26T10:25:00.976Z,30.37
2016-08-26T10:26:00.965Z,30.27
2016-08-26T10:27:00.958Z,30.19
2016-08-26T10:28:00.949Z,30.1
2016-08-26T10:29:00.940Z,30
2016-08-26T10:30:00.932Z,30.1
2016-08-26T10:31:00.921Z,30
2016-08-26T10:32:00.911Z,30.19
2016-08-26T10:33:00.904Z,30.39
2016-08-26T10:34:00.892Z,30.01
2016-08-26T10:35:00.885Z,30.01
2016-08-26T10:36:00.885Z,29.72
2016-08-26T10:37:00.866Z,29.52
2016-08-26T10:38:00.857Z,29.62
2016-08-26T10:39:00.852Z,29.52
2016-08-26T10:40:00.840Z,29.22
2016-08-26T10:41:00.833Z,28.93
2016-08-26T10:42:00.826Z,29.05
2016-08-26T10:43:00.818Z,29.05
2016-08-26T10:44:00.806Z,28.85
2016-08-26T10:45:00.805Z,28.75
2016-08-26T10:46:00.791Z,28.75
2016-08-26T10:47:00.782Z,28.36
2016-08-26T10:48:00.772Z,28.36
2016-08-26T10:49:00.765Z,28.75
2016-08-26T10:50:00.757Z,27.98
2016-08-26T10:51:00.750Z,28.08
2016-08-26T10:52:00.740Z,28.08
2016-08-26T10:53:00.734Z,27.88
2016-08-26T10:54:00.726Z,28.08
2016-08-26T10:55:00.714Z,28.09
2016-08-26T10:56:00.709Z,27.69
2016-08-26T10:57:00.699Z,27.59
2016-08-26T10:58:00.691Z,27.5
2016-08-26T10:59:00.683Z,27.4
2016-08-26T11:00:00.675Z,27.31
2016-08-26T11:01:00.669Z,27.31
2016-08-26T11:02:00.661Z,26.91
2016-08-26T11:03:00.658Z,27.11
2016-08-26T11:04:00.645Z,26.81
2016-08-26T11:05:00.637Z,26.73
2016-08-26T11:06:00.629Z,26.12
2016-08-26T11:07:00.627Z,26.53
2016-08-26T11:08:00.630Z,26.52
2016-08-26T11:09:00.613Z,26.32
2016-08-26T11:10:00.597Z,26.52
2016-08-26T11:11:00.590Z,26.42
2016-08-26T11:12:00.583Z,26.23
2016-08-26T11:13:00.574Z,26.32
2016-08-26T11:14:00.567Z,25.93
2016-08-26T11:15:00.567Z,25.63
2016-08-26T11:16:00.552Z,25.83
2016-08-26T11:17:00.550Z,25.63
2016-08-26T11:18:00.536Z,25.73
2016-08-26T11:19:00.529Z,25.93
2016-08-26T11:20:00.523Z,26.12
2016-08-26T11:21:00.513Z,26.81
2016-08-26T11:22:00.508Z,27.11
2016-08-26T11:23:00.500Z,27.39
2016-08-26T11:24:00.491Z,27.69
2016-08-26T11:25:00.483Z,27.88
2016-08-26T11:26:00.477Z,28.37
2016-08-26T11:27:00.469Z,28.26
2016-08-26T11:28:00.462Z,28.37
2016-08-26T11:29:00.455Z,28.75
2016-08-26T11:30:00.452Z,29.06
2016-08-26T11:31:00.441Z,29.75
2016-08-26T11:32:00.432Z,29.73
2016-08-26T11:33:00.424Z,29.83
2016-08-26T11:34:00.421Z,29.53
2016-08-26T11:35:00.407Z,29.53
2016-08-26T11:36:00.399Z,29.83
2016-08-26T11:37:00.394Z,29.63
2016-08-26T11:38:00.384Z,30.02
2016-08-26T11:39:00.379Z,30.12
2016-08-26T11:40:00.371Z,30.12
2016-08-26T11:41:00.371Z,30.22
2016-08-26T11:42:00.355Z,30.22
2016-08-26T11:43:00.346Z,30.02
2016-08-26T11:44:00.340Z,30.02
2016-08-26T11:45:00.331Z,29.93
2016-08-26T11:46:00.325Z,30.02
2016-08-26T11:47:00.317Z,30.02
2016-08-26T11:48:00.307Z,30.02
2016-08-26T11:49:00.302Z,30.02
2016-08-26T11:50:00.293Z,30.02
2016-08-26T11:51:00.285Z,30.02
2016-08-26T11:52:00.276Z,30.32
2016-08-26T11:53:00.272Z,30.22
2016-08-26T11:54:00.263Z,30.02
2016-08-26T11:55:00.258Z,30.12
2016-08-26T11:56:00.249Z,30.12
2016-08-26T11:57:00.245Z,30.32
2016-08-26T11:58:00.232Z,30.22
2016-08-26T11:59:00.228Z,30.32
2016-08-26T12:00:00.218Z,30.22
2016-08-26T12:01:00.216Z,30.32
2016-08-26T12:02:00.202Z,30.22
2016-08-26T12:03:00.195Z,30.32
2016-08-26T12:04:00.883Z,30.22
2016-08-26T12:05:00.179Z,29.83
2016-08-26T12:06:00.173Z,29.93
2016-08-26T12:07:00.165Z,29.93
2016-08-26T12:08:00.155Z,29.94
2016-08-26T12:09:00.150Z,29.75
2016-08-26T12:10:00.141Z,29.94
2016-08-26T12:11:00.135Z,29.94
2016-08-26T12:12:00.129Z,29.93
2016-08-26T12:13:00.115Z,29.83
2016-08-26T12:14:00.111Z,30.02
2016-08-26T12:15:00.114Z,30.02
2016-08-26T12:16:00.092Z,29.94
2016-08-26T12:17:00.088Z,30.04
2016-08-26T12:18:00.079Z,29.75
2016-08-26T12:19:00.068Z,29.64
2016-08-26T12:20:00.062Z,29.64
2016-08-26T12:21:00.054Z,29.94
2016-08-26T12:22:00.054Z,30.04
2016-08-26T12:23:00.039Z,29.75
2016-08-26T12:24:00.032Z,29.75
2016-08-26T12:25:00.024Z,29.75
2016-08-26T12:26:00.015Z,29.64
2016-08-26T12:27:00.007Z,29.27
2016-08-26T12:28:00.000Z,29.66
2016-08-26T12:28:59.993Z,29.64
2016-08-26T12:29:59.982Z,29.76
2016-08-26T12:30:59.975Z,29.55
2016-08-26T12:31:59.968Z,29.27
2016-08-26T12:32:59.963Z,29.17
2016-08-26T12:33:59.950Z,29.07
2016-08-26T12:34:59.946Z,28.97
2016-08-26T12:35:59.937Z,28.88
2016-08-26T12:36:59.926Z,28.97
2016-08-26T12:37:59.921Z,29.07
2016-08-26T12:38:59.911Z,29.07
2016-08-26T12:39:59.904Z,29.07
2016-08-26T12:40:59.896Z,28.97
2016-08-26T12:41:59.888Z,28.97
2016-08-26T12:42:59.879Z,29.07
2016-08-26T12:43:59.873Z,29.07
2016-08-26T12:44:59.870Z,29.07
2016-08-26T12:45:59.856Z,28.78
2016-08-26T12:46:59.870Z,28.97
2016-08-26T12:47:59.843Z,29.07
2016-08-26T12:48:59.834Z,28.78
2016-08-26T12:49:59.828Z,28.79
2016-08-26T12:50:59.818Z,28.68
2016-08-26T12:51:59.811Z,28.88
2016-08-26T12:52:59.803Z,28.78
2016-08-26T12:53:59.795Z,28.88
2016-08-26T12:54:59.789Z,28.78